sensor_id;sensor_type;location;lat;lon;timestamp;P1;durP1;ratioP1;P2;durP2;ratioP2
69087;SDS011;56190;43.562;5.036;2023-02-28T00:02:06;17.25;;;13.20;;
69087;SDS011;56190;43.562;5.036;2023-02-28T00:04:32;38.42;;;24.52;;
69087;SDS011;56190;43.562;5.036;2023-02-28T00:06:57;28.23;;;24.35;;
69087;SDS011;56190;43.562;5.036;2023-02-28T00:09:22;93.95;;;59.40;;
69087;SDS011;56190;43.562;5.036;2023-02-28T00:11:48;50.30;;;38.42;;
69087;SDS011;56190;43.562;5.036;2023-02-28T00:14:13;18.75;;;15.98;;
69087;SDS011;56190;43.562;5.036;2023-02-28T00:16:38;37.13;;;31.80;;
69087;SDS011;56190;43.562;5.036;2023-02-28T00:19:03;39.30;;;33.70;;
69087;SDS011;56190;43.562;5.036;2023-02-28T00:21:29;101.47;;;80.00;;
69087;SDS011;56190;43.562;5.036;2023-02-28T00:23:54;142.68;;;113.95;;
69087;SDS011;56190;43.562;5.036;2023-02-28T00:26:19;219.27;;;178.88;;
69087;SDS011;56190;43.562;5.036;2023-02-28T00:28:44;223.15;;;184.63;;
69087;SDS011;56190;43.562;5.036;2023-02-28T00:31:09;88.05;;;68.95;;
69087;SDS011;56190;43.562;5.036;2023-02-28T00:33:35;44.30;;;39.45;;
69087;SDS011;56190;43.562;5.036;2023-02-28T00:36:01;243.07;;;182.77;;
69087;SDS011;56190;43.562;5.036;2023-02-28T00:38:26;78.78;;;60.70;;
69087;SDS011;56190;43.562;5.036;2023-02-28T00:40:51;115.18;;;88.10;;
69087;SDS011;56190;43.562;5.036;2023-02-28T00:43:16;143.27;;;106.68;;
69087;SDS011;56190;43.562;5.036;2023-02-28T00:45:42;58.53;;;49.03;;
69087;SDS011;56190;43.562;5.036;2023-02-28T00:48:08;26.65;;;23.90;;
69087;SDS011;56190;43.562;5.036;2023-02-28T00:50:33;12.80;;;11.60;;
69087;SDS011;56190;43.562;5.036;2023-02-28T00:52:58;19.63;;;17.83;;
69087;SDS011;56190;43.562;5.036;2023-02-28T00:55:24;11.70;;;10.60;;
69087;SDS011;56190;43.562;5.036;2023-02-28T00:57:49;8.57;;;7.80;;
69087;SDS011;56190;43.562;5.036;2023-02-28T01:00:14;9.15;;;8.18;;
69087;SDS011;56190;43.562;5.036;2023-02-28T01:02:40;8.15;;;7.35;;
69087;SDS011;56190;43.562;5.036;2023-02-28T01:05:05;8.20;;;7.40;;
69087;SDS011;56190;43.562;5.036;2023-02-28T01:07:30;9.93;;;9.00;;
69087;SDS011;56190;43.562;5.036;2023-02-28T01:09:56;9.52;;;8.63;;
69087;SDS011;56190;43.562;5.036;2023-02-28T01:12:21;9.15;;;7.35;;
69087;SDS011;56190;43.562;5.036;2023-02-28T01:14:46;8.10;;;7.25;;
69087;SDS011;56190;43.562;5.036;2023-02-28T01:17:12;13.55;;;12.23;;
69087;SDS011;56190;43.562;5.036;2023-02-28T01:19:37;40.65;;;30.52;;
69087;SDS011;56190;43.562;5.036;2023-02-28T01:22:03;38.22;;;27.48;;
69087;SDS011;56190;43.562;5.036;2023-02-28T01:24:28;23.38;;;19.73;;
69087;SDS011;56190;43.562;5.036;2023-02-28T01:26:53;23.55;;;21.25;;
69087;SDS011;56190;43.562;5.036;2023-02-28T01:29:19;14.15;;;12.88;;
69087;SDS011;56190;43.562;5.036;2023-02-28T01:31:44;14.75;;;13.27;;
69087;SDS011;56190;43.562;5.036;2023-02-28T01:34:09;9.23;;;8.32;;
69087;SDS011;56190;43.562;5.036;2023-02-28T01:36:34;9.80;;;8.80;;
69087;SDS011;56190;43.562;5.036;2023-02-28T01:39:01;8.65;;;7.95;;
69087;SDS011;56190;43.562;5.036;2023-02-28T01:41:27;9.23;;;8.32;;
69087;SDS011;56190;43.562;5.036;2023-02-28T01:43:55;8.80;;;7.78;;
69087;SDS011;56190;43.562;5.036;2023-02-28T01:46:20;9.60;;;8.57;;
69087;SDS011;56190;43.562;5.036;2023-02-28T01:48:57;9.55;;;8.38;;
69087;SDS011;56190;43.562;5.036;2023-02-28T01:51:28;8.70;;;7.72;;
69087;SDS011;56190;43.562;5.036;2023-02-28T01:53:56;8.85;;;7.95;;
69087;SDS011;56190;43.562;5.036;2023-02-28T01:56:24;9.00;;;8.10;;
69087;SDS011;56190;43.562;5.036;2023-02-28T01:58:52;7.95;;;7.15;;
69087;SDS011;56190;43.562;5.036;2023-02-28T02:01:18;8.40;;;7.60;;
69087;SDS011;56190;43.562;5.036;2023-02-28T02:03:56;7.50;;;6.80;;
69087;SDS011;56190;43.562;5.036;2023-02-28T02:06:29;7.65;;;6.95;;
69087;SDS011;56190;43.562;5.036;2023-02-28T02:08:55;7.85;;;7.13;;
69087;SDS011;56190;43.562;5.036;2023-02-28T02:11:21;7.65;;;6.95;;
69087;SDS011;56190;43.562;5.036;2023-02-28T02:16:23;7.80;;;6.80;;
69087;SDS011;56190;43.562;5.036;2023-02-28T02:29:23;8.60;;;7.45;;
69087;SDS011;56190;43.562;5.036;2023-02-28T02:32:01;9.25;;;8.07;;
69087;SDS011;56190;43.562;5.036;2023-02-28T02:34:36;8.77;;;7.88;;
69087;SDS011;56190;43.562;5.036;2023-02-28T02:42:00;7.93;;;7.13;;
69087;SDS011;56190;43.562;5.036;2023-02-28T02:47:12;9.25;;;7.95;;
69087;SDS011;56190;43.562;5.036;2023-02-28T02:49:39;8.48;;;7.68;;
69087;SDS011;56190;43.562;5.036;2023-02-28T02:52:07;8.82;;;7.93;;
69087;SDS011;56190;43.562;5.036;2023-02-28T02:54:38;9.48;;;8.48;;
69087;SDS011;56190;43.562;5.036;2023-02-28T02:57:10;12.57;;;9.82;;
69087;SDS011;56190;43.562;5.036;2023-02-28T02:59:37;9.52;;;8.57;;
69087;SDS011;56190;43.562;5.036;2023-02-28T03:02:04;11.55;;;10.00;;
69087;SDS011;56190;43.562;5.036;2023-02-28T03:04:32;10.50;;;9.20;;
69087;SDS011;56190;43.562;5.036;2023-02-28T03:06:58;10.63;;;9.55;;
69087;SDS011;56190;43.562;5.036;2023-02-28T03:09:24;13.15;;;11.25;;
69087;SDS011;56190;43.562;5.036;2023-02-28T03:11:50;12.45;;;10.63;;
69087;SDS011;56190;43.562;5.036;2023-02-28T03:24:31;12.45;;;11.15;;
69087;SDS011;56190;43.562;5.036;2023-02-28T03:27:03;14.23;;;12.80;;
69087;SDS011;56190;43.562;5.036;2023-02-28T03:31:58;17.45;;;15.75;;
69087;SDS011;56190;43.562;5.036;2023-02-28T03:34:34;23.85;;;21.55;;
69087;SDS011;56190;43.562;5.036;2023-02-28T03:37:04;22.42;;;20.45;;
69087;SDS011;56190;43.562;5.036;2023-02-28T03:42:20;17.15;;;15.45;;
69087;SDS011;56190;43.562;5.036;2023-02-28T03:44:51;13.65;;;12.40;;
69087;SDS011;56190;43.562;5.036;2023-02-28T03:52:19;13.45;;;12.05;;
69087;SDS011;56190;43.562;5.036;2023-02-28T03:54:50;12.52;;;11.32;;
69087;SDS011;56190;43.562;5.036;2023-02-28T03:59:48;12.43;;;11.15;;
69087;SDS011;56190;43.562;5.036;2023-02-28T04:02:15;12.50;;;11.20;;
69087;SDS011;56190;43.562;5.036;2023-02-28T04:04:41;14.48;;;12.40;;
69087;SDS011;56190;43.562;5.036;2023-02-28T04:07:10;13.88;;;12.45;;
69087;SDS011;56190;43.562;5.036;2023-02-28T04:09:36;14.07;;;12.77;;
69087;SDS011;56190;43.562;5.036;2023-02-28T04:12:01;14.60;;;13.07;;
69087;SDS011;56190;43.562;5.036;2023-02-28T04:14:26;13.25;;;11.88;;
69087;SDS011;56190;43.562;5.036;2023-02-28T04:16:51;13.25;;;11.95;;
69087;SDS011;56190;43.562;5.036;2023-02-28T04:19:17;13.43;;;12.13;;
69087;SDS011;56190;43.562;5.036;2023-02-28T04:21:44;16.15;;;14.48;;
69087;SDS011;56190;43.562;5.036;2023-02-28T04:24:10;13.52;;;12.23;;
69087;SDS011;56190;43.562;5.036;2023-02-28T04:26:39;14.23;;;12.77;;
69087;SDS011;56190;43.562;5.036;2023-02-28T04:29:04;13.40;;;12.07;;
69087;SDS011;56190;43.562;5.036;2023-02-28T04:31:30;14.00;;;12.57;;
69087;SDS011;56190;43.562;5.036;2023-02-28T04:33:56;13.07;;;11.73;;
69087;SDS011;56190;43.562;5.036;2023-02-28T04:36:21;15.20;;;13.65;;
69087;SDS011;56190;43.562;5.036;2023-02-28T04:38:48;16.85;;;13.82;;
69087;SDS011;56190;43.562;5.036;2023-02-28T04:41:13;16.38;;;13.68;;
69087;SDS011;56190;43.562;5.036;2023-02-28T04:43:38;14.93;;;13.35;;
69087;SDS011;56190;43.562;5.036;2023-02-28T04:46:04;15.70;;;14.00;;
69087;SDS011;56190;43.562;5.036;2023-02-28T04:48:31;15.27;;;13.70;;
69087;SDS011;56190;43.562;5.036;2023-02-28T04:51:00;15.48;;;13.98;;
69087;SDS011;56190;43.562;5.036;2023-02-28T04:53:25;14.00;;;12.63;;
69087;SDS011;56190;43.562;5.036;2023-02-28T04:55:52;24.05;;;19.30;;
69087;SDS011;56190;43.562;5.036;2023-02-28T04:58:17;16.55;;;14.52;;
69087;SDS011;56190;43.562;5.036;2023-02-28T05:00:42;19.42;;;16.85;;
69087;SDS011;56190;43.562;5.036;2023-02-28T05:03:08;15.95;;;14.30;;
69087;SDS011;56190;43.562;5.036;2023-02-28T05:05:33;16.60;;;14.90;;
69087;SDS011;56190;43.562;5.036;2023-02-28T05:07:58;15.20;;;13.70;;
69087;SDS011;56190;43.562;5.036;2023-02-28T05:10:24;17.23;;;14.32;;
69087;SDS011;56190;43.562;5.036;2023-02-28T05:12:49;16.83;;;14.98;;
69087;SDS011;56190;43.562;5.036;2023-02-28T05:15:15;16.65;;;14.95;;
69087;SDS011;56190;43.562;5.036;2023-02-28T05:17:41;16.75;;;15.05;;
69087;SDS011;56190;43.562;5.036;2023-02-28T05:20:06;17.17;;;14.88;;
69087;SDS011;56190;43.562;5.036;2023-02-28T05:22:32;15.05;;;13.45;;
69087;SDS011;56190;43.562;5.036;2023-02-28T05:24:57;15.23;;;13.20;;
69087;SDS011;56190;43.562;5.036;2023-02-28T05:27:22;17.00;;;14.93;;
69087;SDS011;56190;43.562;5.036;2023-02-28T05:29:48;15.80;;;14.13;;
69087;SDS011;56190;43.562;5.036;2023-02-28T05:32:13;16.75;;;14.73;;
69087;SDS011;56190;43.562;5.036;2023-02-28T05:34:38;33.25;;;27.38;;
69087;SDS011;56190;43.562;5.036;2023-02-28T05:37:04;28.35;;;25.27;;
69087;SDS011;56190;43.562;5.036;2023-02-28T05:39:30;22.35;;;19.63;;
69087;SDS011;56190;43.562;5.036;2023-02-28T05:41:55;18.60;;;16.80;;
69087;SDS011;56190;43.562;5.036;2023-02-28T05:44:20;16.20;;;14.48;;
69087;SDS011;56190;43.562;5.036;2023-02-28T05:46:45;17.08;;;15.30;;
69087;SDS011;56190;43.562;5.036;2023-02-28T05:49:11;18.35;;;16.45;;
69087;SDS011;56190;43.562;5.036;2023-02-28T05:51:36;18.33;;;16.48;;
69087;SDS011;56190;43.562;5.036;2023-02-28T05:54:04;17.48;;;15.68;;
69087;SDS011;56190;43.562;5.036;2023-02-28T05:56:30;18.40;;;16.48;;
69087;SDS011;56190;43.562;5.036;2023-02-28T05:58:55;19.42;;;16.58;;
69087;SDS011;56190;43.562;5.036;2023-02-28T06:01:22;18.13;;;16.23;;
69087;SDS011;56190;43.562;5.036;2023-02-28T06:03:47;17.65;;;15.80;;
69087;SDS011;56190;43.562;5.036;2023-02-28T06:06:13;17.58;;;15.77;;
69087;SDS011;56190;43.562;5.036;2023-02-28T06:08:38;17.95;;;16.13;;
69087;SDS011;56190;43.562;5.036;2023-02-28T06:11:03;17.02;;;15.32;;
69087;SDS011;56190;43.562;5.036;2023-02-28T06:13:29;16.25;;;14.65;;
69087;SDS011;56190;43.562;5.036;2023-02-28T06:15:54;17.65;;;15.75;;
69087;SDS011;56190;43.562;5.036;2023-02-28T06:18:20;17.75;;;15.82;;
69087;SDS011;56190;43.562;5.036;2023-02-28T06:20:51;17.77;;;15.98;;
69087;SDS011;56190;43.562;5.036;2023-02-28T06:23:18;18.73;;;16.80;;
69087;SDS011;56190;43.562;5.036;2023-02-28T06:25:44;18.23;;;16.42;;
69087;SDS011;56190;43.562;5.036;2023-02-28T06:28:09;19.67;;;17.73;;
69087;SDS011;56190;43.562;5.036;2023-02-28T06:30:36;20.10;;;18.00;;
69087;SDS011;56190;43.562;5.036;2023-02-28T06:33:01;21.23;;;18.58;;
69087;SDS011;56190;43.562;5.036;2023-02-28T06:35:26;21.88;;;19.58;;
69087;SDS011;56190;43.562;5.036;2023-02-28T06:37:52;19.75;;;17.00;;
69087;SDS011;56190;43.562;5.036;2023-02-28T06:40:17;22.20;;;19.70;;
69087;SDS011;56190;43.562;5.036;2023-02-28T06:42:42;25.90;;;23.20;;
69087;SDS011;56190;43.562;5.036;2023-02-28T06:45:08;22.45;;;20.15;;
69087;SDS011;56190;43.562;5.036;2023-02-28T06:47:34;20.85;;;18.65;;
69087;SDS011;56190;43.562;5.036;2023-02-28T06:49:59;19.73;;;17.67;;
69087;SDS011;56190;43.562;5.036;2023-02-28T06:52:26;17.60;;;15.80;;
69087;SDS011;56190;43.562;5.036;2023-02-28T06:54:51;18.55;;;16.17;;
69087;SDS011;56190;43.562;5.036;2023-02-28T06:57:25;17.83;;;15.98;;
69087;SDS011;56190;43.562;5.036;2023-02-28T06:59:50;17.10;;;14.57;;
69087;SDS011;56190;43.562;5.036;2023-02-28T07:02:15;17.88;;;15.98;;
69087;SDS011;56190;43.562;5.036;2023-02-28T07:04:41;18.08;;;16.23;;
69087;SDS011;56190;43.562;5.036;2023-02-28T07:07:09;16.90;;;14.90;;
69087;SDS011;56190;43.562;5.036;2023-02-28T07:09:34;21.08;;;18.35;;
69087;SDS011;56190;43.562;5.036;2023-02-28T07:12:00;21.60;;;19.20;;
69087;SDS011;56190;43.562;5.036;2023-02-28T07:14:25;19.90;;;17.13;;
69087;SDS011;56190;43.562;5.036;2023-02-28T07:16:51;19.33;;;17.13;;
69087;SDS011;56190;43.562;5.036;2023-02-28T07:19:16;20.63;;;18.05;;
69087;SDS011;56190;43.562;5.036;2023-02-28T07:21:41;18.38;;;16.58;;
69087;SDS011;56190;43.562;5.036;2023-02-28T07:24:07;15.40;;;13.77;;
69087;SDS011;56190;43.562;5.036;2023-02-28T07:26:32;18.02;;;16.13;;
69087;SDS011;56190;43.562;5.036;2023-02-28T07:28:59;17.27;;;14.85;;
69087;SDS011;56190;43.562;5.036;2023-02-28T07:31:24;15.88;;;14.27;;
69087;SDS011;56190;43.562;5.036;2023-02-28T07:33:50;15.52;;;13.93;;
69087;SDS011;56190;43.562;5.036;2023-02-28T07:36:16;16.63;;;14.73;;
69087;SDS011;56190;43.562;5.036;2023-02-28T07:38:43;19.27;;;15.90;;
69087;SDS011;56190;43.562;5.036;2023-02-28T07:41:09;16.83;;;14.80;;
69087;SDS011;56190;43.562;5.036;2023-02-28T07:43:34;18.00;;;14.70;;
69087;SDS011;56190;43.562;5.036;2023-02-28T07:46:03;17.13;;;15.10;;
69087;SDS011;56190;43.562;5.036;2023-02-28T07:48:29;22.42;;;18.35;;
69087;SDS011;56190;43.562;5.036;2023-02-28T07:50:58;41.92;;;29.30;;
69087;SDS011;56190;43.562;5.036;2023-02-28T07:53:23;44.55;;;33.20;;
69087;SDS011;56190;43.562;5.036;2023-02-28T07:55:48;27.58;;;22.25;;
69087;SDS011;56190;43.562;5.036;2023-02-28T07:58:14;20.77;;;18.40;;
69087;SDS011;56190;43.562;5.036;2023-02-28T08:00:39;41.50;;;30.13;;
69087;SDS011;56190;43.562;5.036;2023-02-28T08:03:04;39.20;;;29.13;;
69087;SDS011;56190;43.562;5.036;2023-02-28T08:05:30;26.88;;;21.88;;
69087;SDS011;56190;43.562;5.036;2023-02-28T08:07:55;27.48;;;20.30;;
69087;SDS011;56190;43.562;5.036;2023-02-28T08:10:21;27.33;;;22.10;;
69087;SDS011;56190;43.562;5.036;2023-02-28T08:12:46;18.85;;;16.85;;
69087;SDS011;56190;43.562;5.036;2023-02-28T08:15:11;16.70;;;14.90;;
69087;SDS011;56190;43.562;5.036;2023-02-28T08:17:36;16.30;;;14.23;;
69087;SDS011;56190;43.562;5.036;2023-02-28T08:20:02;15.68;;;14.00;;
69087;SDS011;56190;43.562;5.036;2023-02-28T08:22:28;15.60;;;13.40;;
69087;SDS011;56190;43.562;5.036;2023-02-28T08:24:54;25.02;;;22.45;;
69087;SDS011;56190;43.562;5.036;2023-02-28T08:27:19;15.73;;;14.20;;
69087;SDS011;56190;43.562;5.036;2023-02-28T08:29:44;18.30;;;16.40;;
69087;SDS011;56190;43.562;5.036;2023-02-28T08:32:09;18.30;;;15.40;;
69087;SDS011;56190;43.562;5.036;2023-02-28T08:34:35;15.13;;;13.63;;
69087;SDS011;56190;43.562;5.036;2023-02-28T08:37:00;16.52;;;14.82;;
69087;SDS011;56190;43.562;5.036;2023-02-28T08:39:25;13.95;;;12.60;;
69087;SDS011;56190;43.562;5.036;2023-02-28T08:41:50;13.27;;;12.00;;
69087;SDS011;56190;43.562;5.036;2023-02-28T08:44:16;15.80;;;13.93;;
69087;SDS011;56190;43.562;5.036;2023-02-28T08:46:41;14.20;;;12.68;;
69087;SDS011;56190;43.562;5.036;2023-02-28T08:49:06;12.98;;;11.68;;
69087;SDS011;56190;43.562;5.036;2023-02-28T08:51:32;12.90;;;10.82;;
69087;SDS011;56190;43.562;5.036;2023-02-28T08:53:58;12.88;;;11.55;;
69087;SDS011;56190;43.562;5.036;2023-02-28T08:56:24;13.57;;;12.00;;
69087;SDS011;56190;43.562;5.036;2023-02-28T08:58:50;12.60;;;11.40;;
69087;SDS011;56190;43.562;5.036;2023-02-28T09:01:19;13.43;;;12.02;;
69087;SDS011;56190;43.562;5.036;2023-02-28T09:03:45;13.80;;;12.38;;
69087;SDS011;56190;43.562;5.036;2023-02-28T09:06:11;13.05;;;11.75;;
69087;SDS011;56190;43.562;5.036;2023-02-28T09:08:36;12.27;;;11.05;;
69087;SDS011;56190;43.562;5.036;2023-02-28T09:11:02;12.10;;;10.90;;
69087;SDS011;56190;43.562;5.036;2023-02-28T09:13:28;11.88;;;10.65;;
69087;SDS011;56190;43.562;5.036;2023-02-28T09:15:53;11.60;;;10.45;;
69087;SDS011;56190;43.562;5.036;2023-02-28T09:18:19;12.00;;;10.73;;
69087;SDS011;56190;43.562;5.036;2023-02-28T09:20:45;12.80;;;11.50;;
69087;SDS011;56190;43.562;5.036;2023-02-28T09:23:10;12.43;;;11.15;;
69087;SDS011;56190;43.562;5.036;2023-02-28T09:25:36;12.23;;;10.95;;
69087;SDS011;56190;43.562;5.036;2023-02-28T09:28:01;11.90;;;10.57;;
69087;SDS011;56190;43.562;5.036;2023-02-28T09:30:27;11.00;;;9.98;;
69087;SDS011;56190;43.562;5.036;2023-02-28T09:32:52;11.50;;;10.40;;
69087;SDS011;56190;43.562;5.036;2023-02-28T09:35:19;11.32;;;10.23;;
69087;SDS011;56190;43.562;5.036;2023-02-28T09:37:46;10.27;;;9.27;;
69087;SDS011;56190;43.562;5.036;2023-02-28T09:40:11;11.48;;;10.10;;
69087;SDS011;56190;43.562;5.036;2023-02-28T09:42:37;10.45;;;9.35;;
69087;SDS011;56190;43.562;5.036;2023-02-28T09:45:05;11.25;;;10.05;;
69087;SDS011;56190;43.562;5.036;2023-02-28T09:47:36;10.82;;;9.77;;
69087;SDS011;56190;43.562;5.036;2023-02-28T09:50:49;10.75;;;9.75;;
69087;SDS011;56190;43.562;5.036;2023-02-28T09:52:48;12.13;;;10.75;;
69087;SDS011;56190;43.562;5.036;2023-02-28T09:57:40;12.32;;;11.10;;
69087;SDS011;56190;43.562;5.036;2023-02-28T10:05:24;11.15;;;9.98;;
69087;SDS011;56190;43.562;5.036;2023-02-28T10:08:02;10.63;;;9.52;;
69087;SDS011;56190;43.562;5.036;2023-02-28T10:12:56;13.57;;;12.20;;
69087;SDS011;56190;43.562;5.036;2023-02-28T10:15:23;13.32;;;9.50;;
69087;SDS011;56190;43.562;5.036;2023-02-28T10:17:50;11.15;;;10.00;;
69087;SDS011;56190;43.562;5.036;2023-02-28T10:20:18;11.88;;;9.45;;
69087;SDS011;56190;43.562;5.036;2023-02-28T10:22:52;10.40;;;9.40;;
69087;SDS011;56190;43.562;5.036;2023-02-28T10:25:22;10.75;;;9.70;;
69087;SDS011;56190;43.562;5.036;2023-02-28T10:27:48;12.70;;;11.32;;
69087;SDS011;56190;43.562;5.036;2023-02-28T10:30:14;14.02;;;12.60;;
69087;SDS011;56190;43.562;5.036;2023-02-28T10:32:39;14.15;;;12.65;;
69087;SDS011;56190;43.562;5.036;2023-02-28T10:35:21;13.40;;;12.00;;
69087;SDS011;56190;43.562;5.036;2023-02-28T10:37:51;13.68;;;12.20;;
69087;SDS011;56190;43.562;5.036;2023-02-28T10:42:54;14.63;;;13.13;;
69087;SDS011;56190;43.562;5.036;2023-02-28T10:45:20;14.15;;;12.73;;
69087;SDS011;56190;43.562;5.036;2023-02-28T10:50:26;14.35;;;11.73;;
69087;SDS011;56190;43.562;5.036;2023-02-28T10:52:52;12.40;;;10.98;;
69087;SDS011;56190;43.562;5.036;2023-02-28T10:57:47;11.50;;;10.30;;
69087;SDS011;56190;43.562;5.036;2023-02-28T11:00:15;11.52;;;10.30;;
69087;SDS011;56190;43.562;5.036;2023-02-28T11:02:41;12.27;;;10.77;;
69087;SDS011;56190;43.562;5.036;2023-02-28T11:05:23;11.80;;;9.93;;
69087;SDS011;56190;43.562;5.036;2023-02-28T11:07:52;12.75;;;10.52;;
69087;SDS011;56190;43.562;5.036;2023-02-28T11:10:19;12.07;;;10.35;;
69087;SDS011;56190;43.562;5.036;2023-02-28T11:12:46;12.95;;;10.45;;
69087;SDS011;56190;43.562;5.036;2023-02-28T11:17:39;11.60;;;10.40;;
69087;SDS011;56190;43.562;5.036;2023-02-28T11:20:06;11.18;;;10.10;;
69087;SDS011;56190;43.562;5.036;2023-02-28T11:22:36;12.32;;;11.02;;
69087;SDS011;56190;43.562;5.036;2023-02-28T11:25:06;11.80;;;10.05;;
69087;SDS011;56190;43.562;5.036;2023-02-28T11:29:59;12.57;;;11.27;;
69087;SDS011;56190;43.562;5.036;2023-02-28T11:32:25;12.57;;;11.35;;
69087;SDS011;56190;43.562;5.036;2023-02-28T11:35:00;12.15;;;10.18;;
69087;SDS011;56190;43.562;5.036;2023-02-28T11:37:26;13.05;;;11.75;;
69087;SDS011;56190;43.562;5.036;2023-02-28T11:39:52;12.68;;;11.15;;
69087;SDS011;56190;43.562;5.036;2023-02-28T11:52:53;12.00;;;10.80;;
69087;SDS011;56190;43.562;5.036;2023-02-28T12:03:07;12.07;;;10.80;;
69087;SDS011;56190;43.562;5.036;2023-02-28T12:05:41;14.45;;;12.95;;
69087;SDS011;56190;43.562;5.036;2023-02-28T12:10:35;12.40;;;10.88;;
69087;SDS011;56190;43.562;5.036;2023-02-28T12:28:12;10.30;;;9.30;;
69087;SDS011;56190;43.562;5.036;2023-02-28T12:30:39;11.27;;;10.15;;
69087;SDS011;56190;43.562;5.036;2023-02-28T12:33:07;13.27;;;10.98;;
69087;SDS011;56190;43.562;5.036;2023-02-28T12:38:24;11.95;;;10.70;;
69087;SDS011;56190;43.562;5.036;2023-02-28T12:43:16;16.05;;;13.93;;
69087;SDS011;56190;43.562;5.036;2023-02-28T12:45:47;12.88;;;11.65;;
69087;SDS011;56190;43.562;5.036;2023-02-28T12:49:00;13.40;;;12.00;;
69087;SDS011;56190;43.562;5.036;2023-02-28T12:50:59;15.13;;;11.23;;
69087;SDS011;56190;43.562;5.036;2023-02-28T12:53:33;12.50;;;11.13;;
69087;SDS011;56190;43.562;5.036;2023-02-28T12:56:13;11.32;;;10.20;;
69087;SDS011;56190;43.562;5.036;2023-02-28T12:58:49;12.88;;;10.93;;
69087;SDS011;56190;43.562;5.036;2023-02-28T13:03:52;13.10;;;11.77;;
69087;SDS011;56190;43.562;5.036;2023-02-28T13:11:55;12.68;;;10.93;;
69087;SDS011;56190;43.562;5.036;2023-02-28T13:14:24;12.88;;;11.57;;
69087;SDS011;56190;43.562;5.036;2023-02-28T13:16:58;12.00;;;10.85;;
69087;SDS011;56190;43.562;5.036;2023-02-28T13:19:25;12.07;;;11.02;;
69087;SDS011;56190;43.562;5.036;2023-02-28T13:21:51;12.75;;;11.45;;
69087;SDS011;56190;43.562;5.036;2023-02-28T13:24:37;12.32;;;11.02;;
69087;SDS011;56190;43.562;5.036;2023-02-28T13:29:32;11.02;;;9.88;;
69087;SDS011;56190;43.562;5.036;2023-02-28T13:39:46;10.00;;;8.98;;
69087;SDS011;56190;43.562;5.036;2023-02-28T13:50:29;11.65;;;9.95;;
69087;SDS011;56190;43.562;5.036;2023-02-28T14:03:28;10.52;;;9.45;;
69087;SDS011;56190;43.562;5.036;2023-02-28T14:08:42;10.05;;;9.10;;
69087;SDS011;56190;43.562;5.036;2023-02-28T14:11:22;10.45;;;9.40;;
69087;SDS011;56190;43.562;5.036;2023-02-28T14:13:48;11.20;;;9.45;;
69087;SDS011;56190;43.562;5.036;2023-02-28T14:16:14;10.90;;;9.10;;
69087;SDS011;56190;43.562;5.036;2023-02-28T14:19:43;9.18;;;8.27;;
69087;SDS011;56190;43.562;5.036;2023-02-28T14:21:35;9.70;;;8.63;;
69087;SDS011;56190;43.562;5.036;2023-02-28T14:31:41;9.60;;;8.60;;
69087;SDS011;56190;43.562;5.036;2023-02-28T14:36:53;10.00;;;9.00;;
69087;SDS011;56190;43.562;5.036;2023-02-28T14:39:20;9.32;;;8.45;;
69087;SDS011;56190;43.562;5.036;2023-02-28T14:41:46;9.98;;;8.88;;
69087;SDS011;56190;43.562;5.036;2023-02-28T14:46:50;10.73;;;9.32;;
69087;SDS011;56190;43.562;5.036;2023-02-28T14:49:20;11.45;;;10.35;;
69087;SDS011;56190;43.562;5.036;2023-02-28T14:51:47;10.63;;;9.52;;
69087;SDS011;56190;43.562;5.036;2023-02-28T14:54:14;10.75;;;9.65;;
69087;SDS011;56190;43.562;5.036;2023-02-28T14:56:40;11.23;;;9.93;;
69087;SDS011;56190;43.562;5.036;2023-02-28T14:59:18;10.68;;;9.57;;
69087;SDS011;56190;43.562;5.036;2023-02-28T15:01:47;10.13;;;9.13;;
69087;SDS011;56190;43.562;5.036;2023-02-28T15:04:16;11.23;;;9.70;;
69087;SDS011;56190;43.562;5.036;2023-02-28T15:06:43;13.07;;;11.73;;
69087;SDS011;56190;43.562;5.036;2023-02-28T15:09:18;11.13;;;10.02;;
69087;SDS011;56190;43.562;5.036;2023-02-28T15:11:48;9.88;;;8.88;;
69087;SDS011;56190;43.562;5.036;2023-02-28T15:14:19;12.95;;;9.63;;
69087;SDS011;56190;43.562;5.036;2023-02-28T15:16:45;11.50;;;9.68;;
69087;SDS011;56190;43.562;5.036;2023-02-28T15:19:17;12.68;;;9.45;;
69087;SDS011;56190;43.562;5.036;2023-02-28T15:21:44;16.08;;;13.80;;
69087;SDS011;56190;43.562;5.036;2023-02-28T15:26:56;46.65;;;32.58;;
69087;SDS011;56190;43.562;5.036;2023-02-28T15:29:23;19.98;;;17.08;;
69087;SDS011;56190;43.562;5.036;2023-02-28T15:32:02;15.98;;;13.13;;
69087;SDS011;56190;43.562;5.036;2023-02-28T15:36:59;11.38;;;10.20;;
69087;SDS011;56190;43.562;5.036;2023-02-28T15:39:25;10.82;;;9.82;;
69087;SDS011;56190;43.562;5.036;2023-02-28T15:41:52;11.85;;;10.65;;
69087;SDS011;56190;43.562;5.036;2023-02-28T15:46:43;11.20;;;10.10;;
69087;SDS011;56190;43.562;5.036;2023-02-28T15:49:13;11.20;;;10.10;;
69087;SDS011;56190;43.562;5.036;2023-02-28T15:51:42;11.23;;;9.75;;
69087;SDS011;56190;43.562;5.036;2023-02-28T15:54:08;11.73;;;10.52;;
69087;SDS011;56190;43.562;5.036;2023-02-28T15:56:43;11.70;;;10.50;;
69087;SDS011;56190;43.562;5.036;2023-02-28T15:59:15;11.00;;;9.85;;
69087;SDS011;56190;43.562;5.036;2023-02-28T16:01:40;10.93;;;9.43;;
69087;SDS011;56190;43.562;5.036;2023-02-28T16:04:27;11.00;;;9.80;;
69087;SDS011;56190;43.562;5.036;2023-02-28T16:09:23;11.57;;;10.32;;
69087;SDS011;56190;43.562;5.036;2023-02-28T16:11:49;12.02;;;10.65;;
69087;SDS011;56190;43.562;5.036;2023-02-28T16:14:17;11.20;;;10.20;;
69087;SDS011;56190;43.562;5.036;2023-02-28T16:16:44;11.73;;;10.52;;
69087;SDS011;56190;43.562;5.036;2023-02-28T16:19:10;12.15;;;10.88;;
69087;SDS011;56190;43.562;5.036;2023-02-28T16:21:35;12.23;;;10.93;;
69087;SDS011;56190;43.562;5.036;2023-02-28T16:24:01;13.70;;;12.30;;
69087;SDS011;56190;43.562;5.036;2023-02-28T16:26:26;11.88;;;10.70;;
69087;SDS011;56190;43.562;5.036;2023-02-28T16:28:53;14.95;;;11.38;;
69087;SDS011;56190;43.562;5.036;2023-02-28T16:31:18;12.50;;;10.98;;
69087;SDS011;56190;43.562;5.036;2023-02-28T16:33:44;11.93;;;10.15;;
69087;SDS011;56190;43.562;5.036;2023-02-28T16:36:12;12.02;;;10.85;;
69087;SDS011;56190;43.562;5.036;2023-02-28T16:38:37;13.15;;;11.85;;
69087;SDS011;56190;43.562;5.036;2023-02-28T16:41:03;12.73;;;11.35;;
69087;SDS011;56190;43.562;5.036;2023-02-28T16:43:28;12.35;;;10.27;;
69087;SDS011;56190;43.562;5.036;2023-02-28T16:45:54;11.05;;;9.88;;
69087;SDS011;56190;43.562;5.036;2023-02-28T16:48:20;12.10;;;10.80;;
69087;SDS011;56190;43.562;5.036;2023-02-28T16:50:45;12.57;;;11.00;;
69087;SDS011;56190;43.562;5.036;2023-02-28T16:53:10;12.82;;;11.48;;
69087;SDS011;56190;43.562;5.036;2023-02-28T16:55:36;12.68;;;11.43;;
69087;SDS011;56190;43.562;5.036;2023-02-28T16:58:01;13.13;;;11.73;;
69087;SDS011;56190;43.562;5.036;2023-02-28T17:00:29;11.98;;;10.77;;
69087;SDS011;56190;43.562;5.036;2023-02-28T17:02:54;11.85;;;10.70;;
69087;SDS011;56190;43.562;5.036;2023-02-28T17:05:20;13.60;;;10.35;;
69087;SDS011;56190;43.562;5.036;2023-02-28T17:07:46;13.10;;;11.70;;
69087;SDS011;56190;43.562;5.036;2023-02-28T17:10:15;12.90;;;11.18;;
69087;SDS011;56190;43.562;5.036;2023-02-28T17:12:41;12.00;;;10.80;;
69087;SDS011;56190;43.562;5.036;2023-02-28T17:15:06;15.88;;;12.20;;
69087;SDS011;56190;43.562;5.036;2023-02-28T17:17:32;14.15;;;12.75;;